Time;durP1;ratioP1;P1;durP2;ratioP2;P2;SDS_P1;SDS_P2;PMS_P1;PMS_P2;Temp;Humidity;BMP_temperature;BMP_pressure;BME280_temperature;BME280_humidity;BME280_pressure;Samples;Min_cycle;Max_cycle;Signal;HPM_P1;HPM_P2
2022/06/06 00:00:49;;;;;;;;;;;16.50;99.90;;;;;;5111912;28;20295;-68
2022/06/06 00:03:15;;;;;;;;;;;16.50;99.90;;;;;;5112011;28;19920;-68
2022/06/06 00:05:45;;;;;;;;;;;16.50;99.90;;;;;;5111790;28;20411;-68
2022/06/06 00:08:14;;;;;;;;;;;16.50;99.90;;;;;;5112080;28;20014;-68
2022/06/06 00:10:44;;;;;;;;;;;16.50;99.90;;;;;;5110373;28;19927;-69
2022/06/06 00:13:10;;;;;;;;;;;16.50;99.90;;;;;;5110761;28;20006;-69
2022/06/06 00:15:35;;;;;;;;;;;16.40;99.90;;;;;;5111852;28;19932;-68
2022/06/06 00:18:02;;;;;;;;;;;16.50;99.90;;;;;;5111670;28;19920;-69
2022/06/06 00:20:28;;;;;;;;;;;16.40;99.90;;;;;;5111635;28;20287;-69
2022/06/06 00:22:53;;;;;;;;;;;16.30;99.90;;;;;;5111874;28;19926;-69
2022/06/06 00:25:19;;;;;;;;;;;16.30;99.90;;;;;;5111733;28;19943;-69
2022/06/06 00:27:44;;;;;;;;;;;16.30;99.90;;;;;;5111747;28;19926;-68
2022/06/06 00:30:10;;;;;;;;;;;16.30;99.90;;;;;;5110500;28;19924;-68
2022/06/06 00:35:20;;;;;;;;;;;16.30;99.90;;;;;;5111806;28;19924;-68
2022/06/06 00:37:46;;;;;;;;;;;16.20;99.90;;;;;;5111737;28;19924;-68
2022/06/06 00:40:12;;;;;;;;;;;16.30;99.90;;;;;;5111373;28;19924;-68
2022/06/06 00:42:39;;;;;;;;;;;16.30;99.90;;;;;;5111499;28;20505;-69
2022/06/06 00:45:16;;;;;;;;;;;16.30;99.90;;;;;;5111551;28;19989;-68
2022/06/06 00:47:42;;;;;;;;;;;16.20;99.90;;;;;;5111454;28;20380;-68
2022/06/06 00:50:12;;;;;;;;;;;16.30;99.90;;;;;;5111360;28;19931;-68
2022/06/06 00:52:39;;;;;;;;;;;16.20;99.90;;;;;;5111556;28;19985;-68
2022/06/06 00:55:07;;;;;;;;;;;16.20;99.90;;;;;;5111230;28;20064;-68
2022/06/06 00:57:34;;;;;;;;;;;16.20;99.90;;;;;;5111633;28;20292;-68
2022/06/06 01:00:02;;;;;;;;;;;16.20;99.90;;;;;;5114275;28;20000;-68
2022/06/06 01:02:27;;;;;;;;;;;16.10;99.90;;;;;;5115059;28;19927;-68
2022/06/06 01:04:53;;;;;;;;;;;16.10;99.90;;;;;;5115020;28;19920;-68
2022/06/06 01:07:19;;;;;;;;;;;16.10;99.90;;;;;;5115399;28;19933;-68
2022/06/06 01:09:45;;;;;;;;;;;16.10;99.90;;;;;;5115017;28;20550;-68
2022/06/06 01:12:16;;;;;;;;;;;16.10;99.90;;;;;;5113982;28;20296;-68
2022/06/06 01:14:45;;;;;;;;;;;16.10;99.90;;;;;;5114105;28;20530;-68
2022/06/06 01:17:17;;;;;;;;;;;16.10;99.90;;;;;;5115028;28;19924;-68
2022/06/06 01:19:43;;;;;;;;;;;16.10;99.90;;;;;;5114872;28;19924;-68
2022/06/06 01:22:11;;;;;;;;;;;16.00;99.90;;;;;;5115053;28;19924;-68
2022/06/06 01:24:46;;;;;;;;;;;16.00;99.90;;;;;;5113857;28;20367;-68
2022/06/06 01:27:30;;;;;;;;;;;16.00;99.90;;;;;;5114852;28;19973;-68
2022/06/06 01:30:05;;;;;;;;;;;16.00;99.90;;;;;;5114371;28;19979;-68
2022/06/06 01:32:34;;;;;;;;;;;16.00;99.90;;;;;;5114910;28;20299;-68
2022/06/06 01:35:00;;;;;;;;;;;16.00;99.90;;;;;;5113338;28;19926;-68
2022/06/06 01:37:35;;;;;;;;;;;16.00;99.90;;;;;;5113491;28;19928;-68
2022/06/06 01:40:01;;;;;;;;;;;16.00;99.90;;;;;;5114283;27;20315;-68
2022/06/06 01:42:30;;;;;;;;;;;15.90;99.90;;;;;;5114723;28;19927;-68
2022/06/06 01:44:59;;;;;;;;;;;15.90;99.90;;;;;;5113540;28;20363;-68
2022/06/06 01:47:27;;;;;;;;;;;15.90;99.90;;;;;;5113234;28;19930;-68
2022/06/06 01:49:55;;;;;;;;;;;15.90;99.90;;;;;;5114185;28;19920;-68
2022/06/06 01:52:20;;;;;;;;;;;15.90;99.90;;;;;;5114257;28;20399;-68
2022/06/06 01:54:46;;;;;;;;;;;15.90;99.90;;;;;;5113808;27;19973;-68
2022/06/06 01:57:13;;;;;;;;;;;16.00;99.90;;;;;;5114454;28;19926;-68
2022/06/06 01:59:38;;;;;;;;;;;15.90;99.90;;;;;;5113902;28;19920;-68
2022/06/06 02:02:04;;;;;;;;;;;15.80;99.90;;;;;;5114090;28;20014;-68
2022/06/06 02:04:30;;;;;;;;;;;15.90;99.90;;;;;;5114236;28;19920;-68
2022/06/06 02:06:55;;;;;;;;;;;15.80;99.90;;;;;;5114177;28;19936;-68
2022/06/06 02:09:21;;;;;;;;;;;15.80;99.90;;;;;;5113259;28;19990;-68
2022/06/06 02:11:46;;;;;;;;;;;15.70;99.90;;;;;;5112943;28;19919;-68
2022/06/06 02:14:12;;;;;;;;;;;15.70;99.90;;;;;;5114103;28;20489;-68
2022/06/06 02:16:38;;;;;;;;;;;15.80;99.90;;;;;;5113886;28;19920;-68
2022/06/06 02:19:05;;;;;;;;;;;15.70;99.90;;;;;;5113610;28;20008;-68
2022/06/06 02:21:30;;;;;;;;;;;15.70;99.90;;;;;;5113680;28;20384;-68
2022/06/06 02:23:56;;;;;;;;;;;15.60;99.90;;;;;;5112338;28;19920;-68
2022/06/06 02:26:22;;;;;;;;;;;15.60;99.90;;;;;;5113863;28;20387;-68
2022/06/06 02:28:48;;;;;;;;;;;15.60;99.90;;;;;;5113557;28;19919;-68
2022/06/06 02:31:13;;;;;;;;;;;15.50;99.90;;;;;;5113454;28;19926;-68
2022/06/06 02:33:39;;;;;;;;;;;15.50;99.90;;;;;;5113632;28;20441;-68
2022/06/06 02:36:05;;;;;;;;;;;15.60;99.90;;;;;;5113580;28;20332;-68
2022/06/06 02:38:32;;;;;;;;;;;15.50;99.90;;;;;;5112944;28;19993;-66
2022/06/06 02:41:07;;;;;;;;;;;15.50;99.90;;;;;;5113307;28;20379;-66
2022/06/06 02:43:34;;;;;;;;;;;15.50;99.90;;;;;;5113763;28;19989;-68
2022/06/06 02:46:01;;;;;;;;;;;15.40;99.90;;;;;;5113455;28;19919;-68
2022/06/06 02:48:27;;;;;;;;;;;15.40;99.90;;;;;;5113183;28;19920;-68
2022/06/06 02:50:52;;;;;;;;;;;15.40;99.90;;;;;;5113301;28;20276;-68
2022/06/06 02:53:18;;;;;;;;;;;15.40;99.90;;;;;;5113218;28;19927;-68
2022/06/06 02:55:43;;;;;;;;;;;15.20;99.90;;;;;;5112137;28;20425;-68
2022/06/06 02:58:09;;;;;;;;;;;15.30;99.90;;;;;;5113061;28;19920;-68
2022/06/06 03:00:35;;;;;;;;;;;15.30;99.90;;;;;;5112626;28;19934;-68
2022/06/06 03:03:00;;;;;;;;;;;15.30;99.90;;;;;;5112966;28;20281;-68
2022/06/06 03:05:33;;;;;;;;;;;15.20;99.90;;;;;;5112856;28;19926;-68
2022/06/06 03:08:05;;;;;;;;;;;15.20;99.90;;;;;;5113108;28;19927;-68
2022/06/06 03:10:43;;;;;;;;;;;15.20;99.90;;;;;;5112729;28;19924;-68
2022/06/06 03:13:14;;;;;;;;;;;15.10;99.90;;;;;;5112781;28;20010;-68
2022/06/06 03:15:40;;;;;;;;;;;15.10;99.90;;;;;;5112728;28;19931;-68
2022/06/06 03:20:56;;;;;;;;;;;15.00;99.90;;;;;;5112023;28;19924;-68
2022/06/06 03:23:40;;;;;;;;;;;15.10;99.90;;;;;;5112441;28;19920;-68
2022/06/06 03:26:15;;;;;;;;;;;15.10;99.90;;;;;;5094231;28;19928;-68
2022/06/06 03:28:53;;;;;;;;;;;15.10;99.90;;;;;;5112430;28;19924;-68
2022/06/06 03:31:30;;;;;;;;;;;15.10;99.90;;;;;;5111088;28;20485;-68
2022/06/06 03:34:06;;;;;;;;;;;15.10;99.90;;;;;;5112506;28;20339;-68
2022/06/06 03:36:38;;;;;;;;;;;15.00;99.90;;;;;;5112368;28;20302;-68
2022/06/06 03:39:21;;;;;;;;;;;15.00;99.90;;;;;;5112288;28;19919;-68
2022/06/06 03:41:57;;;;;;;;;;;15.00;99.90;;;;;;5112273;28;19967;-68
2022/06/06 03:44:41;;;;;;;;;;;15.00;99.90;;;;;;5112345;28;19926;-68
2022/06/06 03:47:13;;;;;;;;;;;15.00;99.90;;;;;;5111358;28;19920;-68
2022/06/06 03:49:45;;;;;;;;;;;14.90;99.90;;;;;;5108889;28;20392;-68
2022/06/06 03:52:10;;;;;;;;;;;14.90;99.90;;;;;;5109733;28;20464;-68
2022/06/06 03:54:46;;;;;;;;;;;14.90;99.90;;;;;;5109417;28;19927;-68
2022/06/06 03:57:16;;;;;;;;;;;14.80;99.90;;;;;;5112256;28;19920;-68
2022/06/06 03:59:43;;;;;;;;;;;14.90;99.90;;;;;;5110427;28;19924;-68
2022/06/06 04:02:11;;;;;;;;;;;14.80;99.90;;;;;;5111938;28;19920;-68
2022/06/06 04:04:37;;;;;;;;;;;14.90;99.90;;;;;;5111833;28;19919;-68
2022/06/06 04:07:03;;;;;;;;;;;14.80;99.90;;;;;;5111952;28;19923;-68
2022/06/06 04:09:29;;;;;;;;;;;14.80;99.90;;;;;;5111695;28;19926;-68
2022/06/06 04:12:00;;;;;;;;;;;14.80;99.90;;;;;;5111886;28;19919;-68
2022/06/06 04:14:47;;;;;;;;;;;14.90;99.90;;;;;;5111939;28;20323;-67
2022/06/06 04:17:24;;;;;;;;;;;14.90;99.90;;;;;;5111675;28;19979;-68
2022/06/06 04:20:08;;;;;;;;;;;14.80;99.90;;;;;;5111981;28;19920;-68
2022/06/06 04:22:45;;;;;;;;;;;14.80;99.90;;;;;;5111600;28;20444;-68
2022/06/06 04:25:23;;;;;;;;;;;14.90;99.90;;;;;;5111750;28;19967;-68
2022/06/06 04:27:57;;;;;;;;;;;14.70;99.90;;;;;;5111615;28;19920;-68
2022/06/06 04:30:35;;;;;;;;;;;14.80;99.90;;;;;;5111655;28;20375;-67
2022/06/06 04:33:00;;;;;;;;;;;14.80;99.90;;;;;;5113484;28;19930;-68
2022/06/06 04:35:29;;;;;;;;;;;14.80;99.90;;;;;;5115750;28;20010;-68
2022/06/06 04:38:00;;;;;;;;;;;14.80;99.90;;;;;;5115783;28;20414;-68
2022/06/06 04:40:38;;;;;;;;;;;14.70;99.90;;;;;;5114762;28;19927;-68
2022/06/06 04:43:13;;;;;;;;;;;14.80;99.90;;;;;;5115824;28;19926;-68
2022/06/06 04:45:58;;;;;;;;;;;14.80;99.90;;;;;;5113175;28;19924;-68
2022/06/06 04:48:25;;;;;;;;;;;14.70;99.90;;;;;;5072771;28;19920;-67
2022/06/06 04:50:50;;;;;;;;;;;14.70;99.90;;;;;;5115604;28;19973;-68
2022/06/06 04:53:18;;;;;;;;;;;14.70;99.90;;;;;;5115645;28;19975;-68
2022/06/06 04:55:46;;;;;;;;;;;14.70;99.90;;;;;;5115012;28;19965;-68
2022/06/06 04:58:11;;;;;;;;;;;14.70;99.90;;;;;;5114254;28;19963;-68
2022/06/06 05:00:37;;;;;;;;;;;14.70;99.90;;;;;;5114931;28;19981;-68
2022/06/06 05:03:03;;;;;;;;;;;14.70;99.90;;;;;;5115520;28;20232;-68
2022/06/06 05:05:34;;;;;;;;;;;14.70;99.90;;;;;;5115384;28;19920;-68
2022/06/06 05:08:13;;;;;;;;;;;14.70;99.90;;;;;;5115239;28;20523;-68
2022/06/06 05:10:41;;;;;;;;;;;14.70;99.90;;;;;;5115007;28;19919;-68
2022/06/06 05:13:10;;;;;;;;;;;14.70;99.90;;;;;;5114899;28;19927;-68
2022/06/06 05:15:41;;;;;;;;;;;14.70;99.90;;;;;;5115206;28;19943;-68
2022/06/06 05:18:17;;;;;;;;;;;14.70;99.90;;;;;;5115223;28;19927;-68
2022/06/06 05:20:53;;;;;;;;;;;14.70;99.90;;;;;;5114818;28;19924;-68
2022/06/06 05:23:37;;;;;;;;;;;14.70;99.90;;;;;;5114892;28;20021;-68
2022/06/06 05:26:03;;;;;;;;;;;14.70;99.90;;;;;;5115021;28;19924;-68
2022/06/06 05:28:57;;;;;;;;;;;14.70;99.90;;;;;;5113602;28;20065;-68
2022/06/06 05:31:22;;;;;;;;;;;14.70;99.90;;;;;;5114809;28;19963;-68
2022/06/06 05:33:50;;;;;;;;;;;14.70;99.90;;;;;;5114649;28;19965;-68
2022/06/06 05:36:22;;;;;;;;;;;14.70;99.90;;;;;;5114752;28;19972;-68
2022/06/06 05:39:02;;;;;;;;;;;14.70;99.90;;;;;;5114608;27;19927;-68
2022/06/06 05:41:40;;;;;;;;;;;14.80;99.90;;;;;;5114559;28;19925;-68
2022/06/06 05:44:10;;;;;;;;;;;14.80;99.90;;;;;;5113631;28;19931;-68
2022/06/06 05:46:46;;;;;;;;;;;14.80;99.90;;;;;;5114376;28;19975;-68
2022/06/06 05:49:12;;;;;;;;;;;14.80;99.90;;;;;;5114346;28;19920;-68
2022/06/06 05:51:40;;;;;;;;;;;14.80;99.90;;;;;;5114381;28;20019;-68
2022/06/06 05:54:24;;;;;;;;;;;14.90;99.90;;;;;;5114391;28;19931;-68
2022/06/06 05:57:01;;;;;;;;;;;14.90;99.90;;;;;;5114405;28;19959;-68
2022/06/06 05:59:26;;;;;;;;;;;14.90;99.90;;;;;;5113853;28;19927;-67
2022/06/06 06:01:59;;;;;;;;;;;14.90;99.90;;;;;;5114159;28;19924;-68
2022/06/06 06:04:25;;;;;;;;;;;14.90;99.90;;;;;;5114239;28;20572;-68
2022/06/06 06:06:59;;;;;;;;;;;14.90;99.90;;;;;;5113971;28;19935;-67
2022/06/06 06:09:30;;;;;;;;;;;14.90;99.90;;;;;;5114049;28;19943;-68
2022/06/06 06:11:56;;;;;;;;;;;14.90;99.90;;;;;;5114069;28;19985;-68
2022/06/06 06:14:40;;;;;;;;;;;14.90;99.90;;;;;;5113883;28;19919;-68
2022/06/06 06:17:06;;;;;;;;;;;14.90;99.90;;;;;;5113905;28;19951;-68
2022/06/06 06:19:35;;;;;;;;;;;15.20;99.90;;;;;;5113431;28;20380;-68
2022/06/06 06:22:01;;;;;;;;;;;15.50;99.90;;;;;;5113798;28;20277;-68
2022/06/06 06:24:31;;;;;;;;;;;15.70;99.90;;;;;;5113904;28;19965;-68
2022/06/06 06:26:57;;;;;;;;;;;15.80;99.90;;;;;;5113832;28;19923;-68
2022/06/06 06:29:23;;;;;;;;;;;16.00;99.90;;;;;;5113323;28;20052;-68
2022/06/06 06:32:08;;;;;;;;;;;16.10;99.90;;;;;;5113424;28;19927;-68
2022/06/06 06:34:52;;;;;;;;;;;16.10;99.90;;;;;;5113437;28;20410;-68
2022/06/06 06:37:41;;;;;;;;;;;16.30;99.90;;;;;;5113530;28;19919;-68
2022/06/06 06:40:26;;;;;;;;;;;16.40;99.90;;;;;;5113041;28;19931;-68
2022/06/06 06:42:57;;;;;;;;;;;16.50;99.90;;;;;;5113461;28;19919;-68
2022/06/06 06:45:42;;;;;;;;;;;16.40;99.90;;;;;;5112039;28;19919;-68
2022/06/06 06:48:17;;;;;;;;;;;16.30;99.90;;;;;;5113307;28;19920;-68
2022/06/06 06:50:59;;;;;;;;;;;16.20;99.90;;;;;;5113018;28;19920;-68
2022/06/06 06:53:43;;;;;;;;;;;16.20;99.90;;;;;;5111826;28;20376;-68
2022/06/06 06:56:25;;;;;;;;;;;16.10;99.90;;;;;;5112662;28;19931;-66
2022/06/06 06:58:55;;;;;;;;;;;16.10;99.90;;;;;;5112861;28;19923;-68
2022/06/06 07:01:40;;;;;;;;;;;16.10;99.90;;;;;;5111622;28;19939;-68
2022/06/06 07:10:08;;;;;;;;;;;16.00;99.90;;;;;;5112615;28;19923;-69
2022/06/06 07:12:52;;;;;;;;;;;16.00;99.90;;;;;;5094426;28;19942;-68
2022/06/06 07:15:25;;;;;;;;;;;16.00;99.90;;;;;;5112705;28;20303;-68
2022/06/06 07:17:53;;;;;;;;;;;16.10;99.90;;;;;;5112909;28;19977;-66
2022/06/06 07:20:19;;;;;;;;;;;16.10;99.90;;;;;;5112504;28;19959;-66
2022/06/06 07:23:02;;;;;;;;;;;16.10;99.90;;;;;;5112489;28;19924;-66
2022/06/06 07:25:29;;;;;;;;;;;16.20;99.90;;;;;;5111284;28;19923;-66
2022/06/06 07:27:54;;;;;;;;;;;16.40;99.90;;;;;;5112693;28;19919;-67
2022/06/06 07:30:21;;;;;;;;;;;16.60;99.90;;;;;;5112387;28;20039;-66
2022/06/06 07:32:52;;;;;;;;;;;16.80;99.90;;;;;;5111257;28;20410;-66
2022/06/06 07:35:24;;;;;;;;;;;16.90;99.90;;;;;;5112469;28;19919;-66
2022/06/06 07:38:16;;;;;;;;;;;17.10;99.90;;;;;;5111195;28;19919;-66
2022/06/06 07:41:01;;;;;;;;;;;17.30;99.90;;;;;;5110961;28;20370;-66
2022/06/06 07:43:39;;;;;;;;;;;17.40;99.90;;;;;;5111231;28;20333;-67
2022/06/06 07:46:18;;;;;;;;;;;17.60;99.90;;;;;;5112196;28;19966;-67
2022/06/06 07:48:49;;;;;;;;;;;17.50;99.90;;;;;;5111925;28;20400;-66
2022/06/06 07:51:33;;;;;;;;;;;17.50;99.90;;;;;;5112719;28;19919;-66
2022/06/06 07:54:04;;;;;;;;;;;17.40;99.90;;;;;;5112221;28;20360;-66
2022/06/06 07:56:48;;;;;;;;;;;17.50;99.90;;;;;;5111968;28;20411;-67
2022/06/06 07:59:23;;;;;;;;;;;17.40;99.90;;;;;;5111557;28;20323;-67
2022/06/06 08:01:57;;;;;;;;;;;17.40;99.90;;;;;;5111999;28;19945;-66
2022/06/06 08:04:25;;;;;;;;;;;17.50;99.90;;;;;;5112067;28;20346;-66
2022/06/06 08:06:58;;;;;;;;;;;17.40;99.90;;;;;;5111734;28;20326;-66
2022/06/06 08:09:43;;;;;;;;;;;17.60;99.90;;;;;;5111714;28;19973;-66
2022/06/06 08:12:11;;;;;;;;;;;17.60;99.90;;;;;;5111767;28;19920;-68
2022/06/06 08:15:03;;;;;;;;;;;17.60;99.90;;;;;;5111978;28;19919;-67
2022/06/06 08:17:32;;;;;;;;;;;17.60;99.90;;;;;;5111969;28;19955;-67
2022/06/06 08:20:16;;;;;;;;;;;17.60;99.90;;;;;;5111718;28;19924;-67
2022/06/06 08:22:44;;;;;;;;;;;17.60;99.90;;;;;;5111659;28;20383;-67
2022/06/06 08:25:14;;;;;;;;;;;17.60;99.90;;;;;;5111685;28;19920;-67
2022/06/06 08:27:45;;;;;;;;;;;17.70;99.90;;;;;;5111836;28;19920;-67
2022/06/06 08:30:12;;;;;;;;;;;18.00;99.90;;;;;;5111424;28;19928;-67
2022/06/06 08:32:37;;;;;;;;;;;18.00;99.90;;;;;;5111874;28;19944;-67
2022/06/06 08:35:03;;;;;;;;;;;18.00;99.90;;;;;;5111741;28;19994;-67
2022/06/06 08:37:47;;;;;;;;;;;18.00;99.90;;;;;;5111716;28;19926;-67
2022/06/06 08:40:25;;;;;;;;;;;17.90;99.90;;;;;;5109899;28;19931;-67
2022/06/06 08:42:53;;;;;;;;;;;17.90;99.90;;;;;;5111452;28;19928;-67
2022/06/06 08:45:47;;;;;;;;;;;18.00;99.90;;;;;;5111728;28;20384;-67
2022/06/06 08:48:27;;;;;;;;;;;18.00;99.90;;;;;;5111635;28;19920;-67
2022/06/06 08:50:53;;;;;;;;;;;18.10;99.90;;;;;;5111534;28;19924;-67
2022/06/06 08:53:30;;;;;;;;;;;18.20;99.90;;;;;;5111312;28;20288;-67
2022/06/06 08:56:01;;;;;;;;;;;18.30;99.90;;;;;;5111129;28;19963;-67
2022/06/06 08:58:27;;;;;;;;;;;18.30;99.90;;;;;;5110955;28;19919;-67
2022/06/06 09:01:05;;;;;;;;;;;18.10;99.90;;;;;;5111359;28;19981;-67
2022/06/06 09:03:50;;;;;;;;;;;18.10;99.90;;;;;;5111499;28;20345;-67
2022/06/06 09:06:34;;;;;;;;;;;18.20;99.90;;;;;;5111253;28;19936;-67
2022/06/06 09:09:25;;;;;;;;;;;18.20;99.90;;;;;;5110841;28;19926;-67
2022/06/06 09:12:09;;;;;;;;;;;18.10;99.90;;;;;;5109989;28;20356;-67
2022/06/06 09:14:35;;;;;;;;;;;18.00;99.90;;;;;;5111182;28;20010;-67
2022/06/06 09:17:24;;;;;;;;;;;17.90;99.90;;;;;;5111270;28;20394;-67
2022/06/06 09:20:08;;;;;;;;;;;17.90;99.90;;;;;;5112361;28;19927;-66
2022/06/06 09:22:45;;;;;;;;;;;18.00;99.90;;;;;;5114977;28;19919;-67
2022/06/06 09:25:13;;;;;;;;;;;18.30;99.90;;;;;;5114877;28;19998;-67
2022/06/06 09:28:02;;;;;;;;;;;18.40;99.90;;;;;;5114698;28;20007;-67
2022/06/06 09:30:30;;;;;;;;;;;18.30;99.90;;;;;;5114309;28;19924;-67
2022/06/06 09:33:02;;;;;;;;;;;18.40;99.90;;;;;;5114811;28;19924;-66
2022/06/06 09:35:30;;;;;;;;;;;18.40;99.90;;;;;;5114698;28;19965;-67
2022/06/06 09:38:13;;;;;;;;;;;18.50;99.90;;;;;;5113273;28;19986;-67
2022/06/06 09:40:56;;;;;;;;;;;18.60;99.90;;;;;;5114458;28;20501;-66
2022/06/06 09:43:32;;;;;;;;;;;18.80;99.90;;;;;;5114677;28;19920;-66
2022/06/06 09:46:09;;;;;;;;;;;19.00;99.90;;;;;;5114627;28;20295;-67
2022/06/06 09:49:00;;;;;;;;;;;18.90;99.90;;;;;;5114093;28;19985;-67
2022/06/06 09:51:26;;;;;;;;;;;18.80;99.90;;;;;;5114521;28;19924;-67
2022/06/06 10:00:01;;;;;;;;;;;18.90;99.90;;;;;;5093765;28;19920;-67
2022/06/06 10:02:29;;;;;;;;;;;19.00;99.90;;;;;;5114071;28;19957;-67
2022/06/06 10:04:57;;;;;;;;;;;18.90;99.90;;;;;;5113961;28;19919;-66
2022/06/06 10:07:41;;;;;;;;;;;18.90;99.90;;;;;;5114176;28;20349;-67
2022/06/06 10:10:25;;;;;;;;;;;18.90;99.90;;;;;;5113815;28;19919;-67
2022/06/06 10:12:58;;;;;;;;;;;18.80;99.90;;;;;;5113985;28;19964;-67
2022/06/06 10:15:42;;;;;;;;;;;19.00;99.90;;;;;;5113933;28;20463;-67
2022/06/06 10:18:21;;;;;;;;;;;19.00;99.90;;;;;;5114045;28;20343;-67
2022/06/06 10:21:03;;;;;;;;;;;18.90;99.90;;;;;;5113587;27;19969;-67
2022/06/06 10:23:48;;;;;;;;;;;18.90;99.90;;;;;;5113533;28;20372;-66
2022/06/06 10:26:16;;;;;;;;;;;18.70;99.90;;;;;;5113953;28;19959;-67
2022/06/06 10:28:56;;;;;;;;;;;18.50;99.90;;;;;;5113506;28;20002;-66
2022/06/06 10:31:21;;;;;;;;;;;18.50;99.90;;;;;;5113269;28;20032;-67
2022/06/06 10:33:56;;;;;;;;;;;18.50;99.90;;;;;;5113371;28;19970;-67
2022/06/06 10:36:36;;;;;;;;;;;18.70;99.90;;;;;;5113637;28;20062;-67
2022/06/06 10:39:10;;;;;;;;;;;18.70;99.90;;;;;;5113253;28;20010;-67
2022/06/06 10:41:47;;;;;;;;;;;18.60;99.90;;;;;;5113404;28;19934;-67
2022/06/06 10:44:31;;;;;;;;;;;18.50;99.90;;;;;;5113255;28;20280;-67
2022/06/06 10:47:03;;;;;;;;;;;18.60;99.90;;;;;;5113461;28;19919;-67
2022/06/06 10:49:41;;;;;;;;;;;18.50;99.90;;;;;;5113119;28;19920;-67
2022/06/06 10:52:25;;;;;;;;;;;18.50;99.90;;;;;;5113195;27;19946;-67
2022/06/06 10:55:16;;;;;;;;;;;18.50;99.90;;;;;;5113130;28;19923;-67
2022/06/06 10:57:42;;;;;;;;;;;18.40;99.90;;;;;;5113398;28;20006;-67
2022/06/06 11:00:18;;;;;;;;;;;18.50;99.90;;;;;;5112615;28;20348;-67
2022/06/06 11:02:49;;;;;;;;;;;18.50;99.90;;;;;;5112905;28;19920;-67
2022/06/06 11:05:27;;;;;;;;;;;18.30;99.90;;;;;;5112713;28;19924;-66
2022/06/06 11:08:00;;;;;;;;;;;18.20;99.90;;;;;;5113051;28;19965;-67
2022/06/06 11:10:29;;;;;;;;;;;17.90;99.90;;;;;;5112606;28;19930;-66
2022/06/06 11:13:12;;;;;;;;;;;17.50;99.90;;;;;;5112729;28;19926;-66
2022/06/06 11:15:40;;;;;;;;;;;17.40;99.90;;;;;;5112700;28;19919;-67
2022/06/06 11:18:18;;;;;;;;;;;17.30;99.90;;;;;;5112820;28;19935;-67
2022/06/06 11:21:11;;;;;;;;;;;17.10;99.90;;;;;;5112303;28;19967;-66
2022/06/06 11:24:03;;;;;;;;;;;16.90;99.90;;;;;;5112613;28;19973;-66
2022/06/06 11:26:37;;;;;;;;;;;17.00;99.90;;;;;;5029483;28;19921;-66
2022/06/06 11:29:12;;;;;;;;;;;17.00;99.90;;;;;;5029321;28;19921;-67
2022/06/06 11:31:49;;;;;;;;;;;17.10;99.90;;;;;;5029472;28;20479;-67
2022/06/06 11:34:32;;;;;;;;;;;17.30;99.90;;;;;;5029484;28;19925;-66
2022/06/06 11:36:57;;;;;;;;;;;17.20;99.90;;;;;;5029453;28;19922;-67
2022/06/06 11:39:29;;;;;;;;;;;17.10;99.90;;;;;;4996221;28;20364;-66
2022/06/06 11:42:13;;;;;;;;;;;16.90;99.90;;;;;;5028689;28;20380;-67
2022/06/06 11:44:57;;;;;;;;;;;17.00;99.90;;;;;;5029231;28;20321;-66
2022/06/06 11:47:24;;;;;;;;;;;16.90;99.90;;;;;;5029288;28;19928;-67
2022/06/06 11:50:04;;;;;;;;;;;17.00;99.90;;;;;;5028879;28;20007;-66
2022/06/06 11:52:50;;;;;;;;;;;17.00;99.90;;;;;;5029110;28;19967;-67
2022/06/06 11:55:29;;;;;;;;;;;16.90;99.90;;;;;;5012423;28;19929;-67
2022/06/06 11:58:04;;;;;;;;;;;16.70;99.90;;;;;;5029158;28;19928;-67
2022/06/06 12:00:48;;;;;;;;;;;16.60;99.90;;;;;;5028783;28;19925;-67
2022/06/06 12:03:34;;;;;;;;;;;16.60;99.90;;;;;;5068272;28;21280;-67
2022/06/06 12:06:15;;;;;;;;;;;16.50;99.90;;;;;;5112030;28;20337;-67
2022/06/06 12:08:47;;;;;;;;;;;16.50;99.90;;;;;;5111720;28;19927;-67
2022/06/06 12:11:31;;;;;;;;;;;16.50;99.90;;;;;;5111900;28;19945;-67
2022/06/06 12:14:16;;;;;;;;;;;16.60;99.90;;;;;;5112108;28;20511;-67
2022/06/06 12:16:42;;;;;;;;;;;16.70;99.90;;;;;;5112137;28;19919;-67
2022/06/06 12:19:12;;;;;;;;;;;16.80;99.90;;;;;;5111748;28;19919;-67
2022/06/06 12:21:41;;;;;;;;;;;16.90;99.90;;;;;;5111952;28;20032;-67
2022/06/06 12:24:25;;;;;;;;;;;17.00;99.90;;;;;;5111899;28;19924;-67
2022/06/06 12:27:02;;;;;;;;;;;17.00;99.90;;;;;;5111950;28;19926;-67
2022/06/06 12:29:38;;;;;;;;;;;17.10;99.90;;;;;;5111515;28;19926;-67
2022/06/06 12:32:09;;;;;;;;;;;17.20;99.90;;;;;;5110694;28;19920;-67
2022/06/06 12:34:42;;;;;;;;;;;17.40;99.90;;;;;;5111811;28;20322;-67
2022/06/06 12:37:13;;;;;;;;;;;17.50;99.90;;;;;;5111916;28;19920;-67
2022/06/06 12:40:03;;;;;;;;;;;17.60;99.90;;;;;;5111556;28;19927;-67
2022/06/06 12:42:28;;;;;;;;;;;17.80;99.90;;;;;;5111627;28;19934;-67
2022/06/06 12:45:14;;;;;;;;;;;17.80;99.90;;;;;;5111812;28;19920;-67
2022/06/06 12:47:58;;;;;;;;;;;17.80;99.90;;;;;;5110714;28;19990;-67
2022/06/06 12:50:39;;;;;;;;;;;17.70;99.90;;;;;;5111314;28;19919;-67
2022/06/06 12:53:19;;;;;;;;;;;17.70;99.90;;;;;;5111880;28;19920;-67
2022/06/06 12:58:35;;;;;;;;;;;17.90;99.90;;;;;;5115022;28;20375;-67
2022/06/06 13:04:01;;;;;;;;;;;17.90;99.90;;;;;;5115601;28;19924;-67
2022/06/06 13:06:45;;;;;;;;;;;17.90;99.90;;;;;;5115523;28;19920;-67
2022/06/06 13:09:16;;;;;;;;;;;18.10;99.90;;;;;;5115034;28;19991;-67
2022/06/06 13:11:48;;;;;;;;;;;18.00;99.90;;;;;;5115451;28;20014;-67
2022/06/06 13:14:32;;;;;;;;;;;18.00;99.90;;;;;;5115243;28;20543;-67
2022/06/06 13:17:16;;;;;;;;;;;18.00;99.90;;;;;;5115215;28;20411;-67
2022/06/06 13:19:56;;;;;;;;;;;17.90;99.90;;;;;;5113740;28;20393;-67
2022/06/06 13:22:33;;;;;;;;;;;17.90;99.90;;;;;;5115104;28;19930;-67
2022/06/06 13:25:12;;;;;;;;;;;17.80;99.90;;;;;;5115199;28;20014;-67
2022/06/06 13:27:40;;;;;;;;;;;17.90;99.90;;;;;;5114929;28;20388;-67
2022/06/06 13:30:17;;;;;;;;;;;17.80;99.90;;;;;;5114881;28;20596;-67
2022/06/06 13:32:52;;;;;;;;;;;17.80;99.90;;;;;;5114867;28;19973;-67
2022/06/06 13:35:18;;;;;;;;;;;17.90;99.90;;;;;;5114919;28;20345;-67
2022/06/06 13:37:49;;;;;;;;;;;17.90;99.90;;;;;;5115019;28;19927;-67
2022/06/06 13:40:24;;;;;;;;;;;17.80;99.90;;;;;;5114422;28;19924;-67
2022/06/06 13:42:49;;;;;;;;;;;17.80;99.90;;;;;;5113420;28;19955;-67
2022/06/06 13:45:19;;;;;;;;;;;17.60;99.90;;;;;;5114757;28;19970;-67
2022/06/06 13:47:45;;;;;;;;;;;17.60;99.90;;;;;;5114774;28;20391;-67
2022/06/06 13:50:13;;;;;;;;;;;17.60;99.90;;;;;;5114370;28;20011;-67
2022/06/06 13:52:57;;;;;;;;;;;17.60;99.90;;;;;;5114396;28;19930;-67
2022/06/06 13:55:23;;;;;;;;;;;17.40;99.90;;;;;;5114384;28;19926;-67
2022/06/06 13:57:54;;;;;;;;;;;17.40;99.90;;;;;;5113461;28;20014;-67
2022/06/06 14:00:25;;;;;;;;;;;17.30;99.90;;;;;;5114010;27;19977;-67
2022/06/06 14:02:54;;;;;;;;;;;17.30;99.90;;;;;;5114182;28;20022;-67
2022/06/06 14:05:26;;;;;;;;;;;17.20;99.90;;;;;;5113651;28;19924;-67
2022/06/06 14:08:00;;;;;;;;;;;17.10;99.90;;;;;;5114409;28;20307;-67
2022/06/06 14:10:33;;;;;;;;;;;17.00;99.90;;;;;;5113897;28;19924;-67
2022/06/06 14:13:04;;;;;;;;;;;17.00;99.90;;;;;;5114027;28;20273;-67
2022/06/06 14:15:38;;;;;;;;;;;17.00;99.90;;;;;;5114320;28;19927;-67
2022/06/06 14:18:06;;;;;;;;;;;16.90;99.90;;;;;;5114113;28;19923;-67
2022/06/06 14:20:35;;;;;;;;;;;16.90;99.90;;;;;;5113715;28;19931;-67
2022/06/06 14:23:20;;;;;;;;;;;16.70;99.90;;;;;;5113922;28;19993;-67
2022/06/06 14:25:47;;;;;;;;;;;16.80;99.90;;;;;;5113805;28;19927;-67
2022/06/06 14:28:17;;;;;;;;;;;16.70;99.90;;;;;;5112517;28;19920;-67
2022/06/06 14:30:42;;;;;;;;;;;16.70;99.90;;;;;;5113694;28;19920;-67
2022/06/06 14:33:20;;;;;;;;;;;16.60;99.90;;;;;;5113444;28;20049;-67
2022/06/06 14:35:46;;;;;;;;;;;16.60;99.90;;;;;;5113638;28;20016;-67
2022/06/06 14:38:16;;;;;;;;;;;16.50;99.90;;;;;;5113460;28;19924;-67
2022/06/06 14:41:08;;;;;;;;;;;16.50;99.90;;;;;;5113266;28;19943;-67
2022/06/06 14:43:53;;;;;;;;;;;16.50;99.90;;;;;;5109469;28;20018;-67
2022/06/06 14:46:19;;;;;;;;;;;16.50;99.90;;;;;;5113253;28;19944;-67
2022/06/06 14:48:47;;;;;;;;;;;16.40;99.90;;;;;;5112983;28;19924;-67
2022/06/06 14:51:13;;;;;;;;;;;16.50;99.90;;;;;;5111875;28;19973;-67
2022/06/06 14:53:42;;;;;;;;;;;16.20;99.90;;;;;;5113440;28;19920;-67
2022/06/06 14:56:10;;;;;;;;;;;16.20;99.90;;;;;;5111661;28;19928;-67
2022/06/06 14:58:36;;;;;;;;;;;16.10;99.90;;;;;;5112707;28;19945;-67
2022/06/06 15:01:04;;;;;;;;;;;16.00;99.90;;;;;;5113252;28;20334;-67
2022/06/06 15:03:32;;;;;;;;;;;16.00;99.90;;;;;;5111768;28;19974;-67
2022/06/06 15:06:05;;;;;;;;;;;16.10;99.90;;;;;;5112986;28;19943;-67
2022/06/06 15:08:32;;;;;;;;;;;16.00;99.90;;;;;;5111471;28;19924;-67
2022/06/06 15:11:12;;;;;;;;;;;16.00;99.90;;;;;;5112935;28;20379;-67
2022/06/06 15:13:47;;;;;;;;;;;16.00;99.90;;;;;;5113159;28;19919;-67